Time;durP1;ratioP1;P1;durP2;ratioP2;P2;SDS_P1;SDS_P2;PMS_P1;PMS_P2;Temp;Humidity;BMP_temperature;BMP_pressure;BME280_temperature;BME280_humidity;BME280_pressure;Samples;Min_cycle;Max_cycle;Signal;HPM_P1;HPM_P2
2022/05/03 00:01:12;;;;;;;7.57;2.67;;;;;;;-145.18;100.00;60484.78;5038570;28;19943;-68
2022/05/03 00:04:09;;;;;;;4.40;2.27;;;;;;;-145.18;100.00;60484.78;5038032;28;20428;-68
2022/05/03 00:07:13;;;;;;;4.20;2.17;;;;;;;-145.18;100.00;60484.78;5039835;28;20068;-68
2022/05/03 00:09:39;;;;;;;4.63;2.50;;;;;;;-145.18;100.00;60484.78;5041669;28;20527;-68
2022/05/03 00:12:08;;;;;;;4.67;2.43;;;;;;;-145.18;100.00;60484.78;5043501;28;20025;-68
2022/05/03 00:14:37;;;;;;;4.33;2.57;;;;;;;-145.18;100.00;60484.78;5034378;28;20072;-68
2022/05/03 00:17:04;;;;;;;6.27;2.90;;;;;;;-145.18;100.00;60484.78;5043768;28;20024;-68
2022/05/03 00:19:30;;;;;;;5.20;2.73;;;;;;;-145.18;100.00;60484.78;5032039;28;20020;-68
2022/05/03 00:21:56;;;;;;;5.67;2.70;;;;;;;-145.18;100.00;60484.78;5038279;28;20381;-68
2022/05/03 00:24:21;;;;;;;6.27;2.83;;;;;;;-145.18;100.00;60484.78;5034686;28;20425;-68
2022/05/03 00:26:48;;;;;;;4.37;2.57;;;;;;;-145.18;100.00;60484.78;5032951;28;20029;-68
2022/05/03 00:29:14;;;;;;;5.90;2.70;;;;;;;-145.18;100.00;60484.78;5031513;28;20033;-68
2022/05/03 00:31:40;;;;;;;5.00;2.50;;;;;;;-145.18;100.00;60484.78;5034876;28;20029;-68
2022/05/03 00:34:05;;;;;;;4.10;2.23;;;;;;;-145.18;100.00;60484.78;5046074;28;20056;-68
2022/05/03 00:36:31;;;;;;;6.50;3.10;;;;;;;-145.18;100.00;60484.78;5037101;28;20438;-68
2022/05/03 00:38:57;;;;;;;6.30;3.23;;;;;;;-145.18;100.00;60484.78;5030210;28;20025;-68
2022/05/03 00:41:42;;;;;;;7.07;2.87;;;;;;;-145.18;100.00;60484.78;5034911;28;20021;-68
2022/05/03 00:47:20;;;;;;;5.57;2.90;;;;;;;-145.18;100.00;60484.78;5032485;28;20041;-68
2022/05/03 00:50:04;;;;;;;6.37;3.10;;;;;;;-145.18;100.00;60484.78;5038442;28;20465;-68
2022/05/03 00:52:48;;;;;;;6.43;3.00;;;;;;;-145.18;100.00;60484.78;5036129;28;20029;-68
2022/05/03 00:55:32;;;;;;;5.43;3.20;;;;;;;-145.18;100.00;60484.78;5040726;28;20032;-68
2022/05/03 00:58:33;;;;;;;7.10;3.20;;;;;;;-145.18;100.00;60484.78;5035373;28;20440;-68
2022/05/03 01:01:27;;;;;;;6.47;3.13;;;;;;;-145.18;100.00;60484.78;5034334;28;20047;-68
2022/05/03 01:04:11;;;;;;;5.83;3.10;;;;;;;-145.18;100.00;60484.78;5033224;28;20036;-68
2022/05/03 01:06:56;;;;;;;6.87;3.00;;;;;;;-145.18;100.00;60484.78;5035779;28;20037;-68
2022/05/03 01:09:34;;;;;;;7.40;3.20;;;;;;;-145.18;100.00;60484.78;5031986;28;20448;-68
2022/05/03 01:12:21;;;;;;;7.70;3.23;;;;;;;-145.18;100.00;60484.78;5039345;28;20105;-68
2022/05/03 01:15:17;;;;;;;6.93;3.70;;;;;;;-145.18;100.00;60484.78;5036321;28;20322;-68
2022/05/03 01:18:27;;;;;;;7.53;3.20;;;;;;;-145.18;100.00;60484.78;5041265;28;20025;-68
2022/05/03 01:21:13;;;;;;;5.53;3.30;;;;;;;-145.18;100.00;60484.78;5041696;28;20049;-68
2022/05/03 01:23:58;;;;;;;5.43;3.20;;;;;;;-145.18;100.00;60484.78;5033510;28;20092;-68
2022/05/03 01:26:55;;;;;;;5.67;3.30;;;;;;;-145.18;100.00;60484.78;5034750;28;20059;-68
2022/05/03 01:29:25;;;;;;;9.90;3.30;;;;;;;-145.18;100.00;60484.78;5031331;28;20047;-68
2022/05/03 01:31:59;;;;;;;6.60;3.73;;;;;;;-145.18;100.00;60484.78;5032543;28;20033;-68
2022/05/03 01:34:26;;;;;;;8.50;3.73;;;;;;;-145.18;100.00;60484.78;5030843;28;20489;-68
2022/05/03 01:37:00;;;;;;;8.17;3.70;;;;;;;-145.18;100.00;60484.78;5037042;28;20029;-68
2022/05/03 01:39:51;;;;;;;9.97;3.53;;;;;;;-145.18;100.00;60484.78;5033760;28;20056;-68
2022/05/03 01:42:37;;;;;;;5.37;3.50;;;;;;;-145.18;100.00;60484.78;5031145;28;20017;-68
2022/05/03 01:45:07;;;;;;;5.47;3.20;;;;;;;-145.18;100.00;60484.78;5033614;28;20047;-68
2022/05/03 01:47:58;;;;;;;10.83;3.83;;;;;;;-145.18;100.00;60484.78;5032317;28;20552;-68
2022/05/03 01:50:27;;;;;;;7.67;3.97;;;;;;;-145.18;100.00;60484.78;5037415;28;20036;-68
2022/05/03 01:53:07;;;;;;;10.10;4.00;;;;;;;-145.18;100.00;60484.78;5047027;28;20056;-68
2022/05/03 01:55:55;;;;;;;10.70;4.47;;;;;;;-145.18;100.00;60484.78;5044811;28;20017;-68
2022/05/03 01:58:55;;;;;;;7.67;4.50;;;;;;;-145.18;100.00;60484.78;5035972;28;20443;-68
2022/05/03 02:01:20;;;;;;;7.97;4.17;;;;;;;-145.18;100.00;60484.78;5035211;28;20043;-68
2022/05/03 02:03:50;;;;;;;10.33;4.30;;;;;;;-145.18;100.00;60484.78;5029992;28;20493;-68
2022/05/03 02:06:29;;;;;;;8.37;4.43;;;;;;;-145.18;100.00;60484.78;5040871;28;20084;-68
2022/05/03 02:09:04;;;;;;;6.73;4.20;;;;;;;-145.18;100.00;60484.78;5037419;28;20025;-68
2022/05/03 02:11:48;;;;;;;6.90;3.87;;;;;;;-145.18;100.00;60484.78;5035565;28;20509;-68
2022/05/03 02:17:20;;;;;;;7.67;4.70;;;;;;;-145.18;100.00;60484.78;5039868;28;20052;-68
2022/05/03 02:20:16;;;;;;;6.03;4.00;;;;;;;-145.18;100.00;60484.78;5033468;28;20032;-68
2022/05/03 02:22:46;;;;;;;9.13;4.53;;;;;;;-145.18;100.00;60484.78;5032448;28;20067;-68
2022/05/03 02:25:34;;;;;;;7.50;4.47;;;;;;;-145.18;100.00;60484.78;5037114;28;20104;-68
2022/05/03 02:28:04;;;;;;;6.83;4.30;;;;;;;-145.18;100.00;60484.78;5029401;28;20374;-68
2022/05/03 02:30:33;;;;;;;6.73;4.37;;;;;;;-145.18;100.00;60484.78;5030693;28;20076;-68
2022/05/03 02:33:05;;;;;;;6.80;4.50;;;;;;;-145.18;100.00;60484.78;5033537;28;20025;-69
2022/05/03 02:35:34;;;;;;;8.03;4.60;;;;;;;-145.18;100.00;60484.78;5034635;28;20026;-68
2022/05/03 02:38:05;;;;;;;15.73;4.77;;;;;;;-145.18;100.00;60484.78;5038100;28;20029;-68
2022/05/03 02:40:32;;;;;;;11.67;4.40;;;;;;;-145.18;100.00;60484.78;5032318;28;20072;-68
2022/05/03 02:42:58;;;;;;;8.40;4.70;;;;;;;-145.18;100.00;60484.78;5030356;28;20036;-68
2022/05/03 02:45:24;;;;;;;12.83;4.97;;;;;;;-145.18;100.00;60484.78;5031909;28;20561;-68
2022/05/03 02:47:59;;;;;;;8.70;5.07;;;;;;;-145.18;100.00;60484.78;5032704;28;20025;-68
2022/05/03 02:50:35;;;;;;;12.10;4.93;;;;;;;-145.18;100.00;60484.78;5046815;28;20436;-68
2022/05/03 02:53:05;;;;;;;9.53;5.10;;;;;;;-145.18;100.00;60484.78;5047404;28;20025;-68
2022/05/03 02:55:40;;;;;;;10.27;5.40;;;;;;;-145.18;100.00;60484.78;5041249;28;20211;-69
2022/05/03 02:58:18;;;;;;;17.10;5.97;;;;;;;-145.18;100.00;60484.78;5042934;28;20036;-68
2022/05/03 03:04:20;;;;;;;10.37;5.07;;;;;;;-145.18;100.00;60484.78;5031359;28;20535;-68
2022/05/03 03:06:47;;;;;;;10.63;4.97;;;;;;;-145.18;100.00;60484.78;5041963;28;20033;-68
2022/05/03 03:09:21;;;;;;;9.07;5.50;;;;;;;-145.18;100.00;60484.78;5035943;28;20018;-68
2022/05/03 03:12:01;;;;;;;8.60;5.20;;;;;;;-145.18;100.00;60484.78;5032623;28;20083;-68
2022/05/03 03:14:35;;;;;;;10.13;5.83;;;;;;;-145.18;100.00;60484.78;5036298;28;20068;-68
2022/05/03 03:17:06;;;;;;;7.93;4.87;;;;;;;-145.18;100.00;60484.78;5033007;28;20108;-68
2022/05/03 03:19:37;;;;;;;11.33;5.93;;;;;;;-145.18;100.00;60484.78;5043670;28;20055;-69
2022/05/03 03:22:02;;;;;;;10.35;5.28;;;;;;;-145.18;100.00;60484.78;5033617;28;20272;-68
2022/05/03 03:24:31;;;;;;;7.80;5.07;;;;;;;-145.18;100.00;60484.78;5036512;28;20103;-68
2022/05/03 03:27:00;;;;;;;10.80;4.97;;;;;;;-145.18;100.00;60484.78;5047336;28;20033;-69
2022/05/03 03:29:27;;;;;;;9.10;4.77;;;;;;;-145.18;100.00;60484.78;5046170;28;20111;-69
2022/05/03 03:31:54;;;;;;;9.03;5.37;;;;;;;-145.18;100.00;60484.78;5035075;28;20495;-69
2022/05/03 03:34:20;;;;;;;7.87;5.60;;;;;;;-145.18;100.00;60484.78;5036915;28;20057;-68
2022/05/03 03:36:49;;;;;;;9.10;5.20;;;;;;;-145.18;100.00;60484.78;5033767;28;20059;-68
2022/05/03 03:39:15;;;;;;;9.50;5.43;;;;;;;-145.18;100.00;60484.78;5043630;28;20488;-69
2022/05/03 03:41:41;;;;;;;10.60;5.10;;;;;;;-145.18;100.00;60484.78;5032281;28;20028;-68
2022/05/03 03:44:06;;;;;;;13.20;5.20;;;;;;;-145.18;100.00;60484.78;5033105;28;20121;-68
2022/05/03 03:46:33;;;;;;;10.50;4.80;;;;;;;-145.18;100.00;60484.78;5036300;28;20125;-68
2022/05/03 03:48:58;;;;;;;7.87;4.83;;;;;;;-145.18;100.00;60484.78;5037337;28;20048;-68
2022/05/03 03:51:24;;;;;;;8.27;5.13;;;;;;;-145.18;100.00;60484.78;5033221;28;20705;-68
2022/05/03 03:53:51;;;;;;;13.17;5.40;;;;;;;-145.18;100.00;60484.78;5041269;28;20055;-68
2022/05/03 03:56:17;;;;;;;7.63;5.17;;;;;;;-145.18;100.00;60484.78;5034256;28;20083;-68
2022/05/03 03:58:42;;;;;;;11.03;5.47;;;;;;;-145.18;100.00;60484.78;5035351;28;20020;-69
2022/05/03 04:01:09;;;;;;;10.97;5.87;;;;;;;-145.18;100.00;60484.78;5037004;28;20489;-68
2022/05/03 04:03:37;;;;;;;10.77;5.63;;;;;;;-145.18;100.00;60484.78;5036398;28;20504;-69
2022/05/03 04:06:03;;;;;;;9.07;5.43;;;;;;;-145.18;100.00;60484.78;5043680;28;20076;-68
2022/05/03 04:08:28;;;;;;;11.17;5.50;;;;;;;-145.18;100.00;60484.78;5032876;28;20050;-69
2022/05/03 04:10:54;;;;;;;10.90;5.60;;;;;;;-145.18;100.00;60484.78;5038475;28;20033;-68
2022/05/03 04:13:19;;;;;;;11.77;5.53;;;;;;;-145.18;100.00;60484.78;5038568;28;20029;-68
2022/05/03 04:15:45;;;;;;;9.60;5.63;;;;;;;-145.18;100.00;60484.78;5034534;28;20037;-69
2022/05/03 04:18:10;;;;;;;11.07;6.20;;;;;;;-145.18;100.00;60484.78;5034282;28;20079;-68
2022/05/03 04:20:36;;;;;;;8.17;5.03;;;;;;;-145.18;100.00;60484.78;5044615;28;20128;-69
2022/05/03 04:23:01;;;;;;;8.43;5.50;;;;;;;-145.18;100.00;60484.78;5030894;28;20017;-69
2022/05/03 04:25:27;;;;;;;16.37;6.00;;;;;;;-145.18;100.00;60484.78;5033595;28;20029;-69
2022/05/03 04:27:52;;;;;;;15.30;5.30;;;;;;;-145.18;100.00;60484.78;5039024;28;20389;-68
2022/05/03 04:30:17;;;;;;;9.57;5.23;;;;;;;-145.18;100.00;60484.78;5035673;28;20402;-69
2022/05/03 04:32:43;;;;;;;14.40;5.10;;;;;;;-145.18;100.00;60484.78;5032779;28;20033;-68
2022/05/03 04:35:09;;;;;;;10.60;3.70;;;;;;;-145.18;100.00;60484.78;5034642;28;20040;-68
2022/05/03 04:37:34;;;;;;;7.27;2.93;;;;;;;-145.18;100.00;60484.78;5038370;28;20032;-68
2022/05/03 04:40:00;;;;;;;5.10;2.90;;;;;;;-145.18;100.00;60484.78;5045483;28;20464;-68
2022/05/03 04:42:25;;;;;;;6.03;3.07;;;;;;;-145.18;100.00;60484.78;5036269;28;20354;-68
2022/05/03 04:44:50;;;;;;;5.50;3.00;;;;;;;-145.18;100.00;60484.78;5043707;28;20024;-68
2022/05/03 04:47:16;;;;;;;6.87;3.10;;;;;;;-145.18;100.00;60484.78;5031461;28;20036;-68
2022/05/03 04:49:41;;;;;;;11.13;3.23;;;;;;;-145.18;100.00;60484.78;5031305;28;20037;-68
2022/05/03 04:52:07;;;;;;;9.47;2.90;;;;;;;-145.18;100.00;60484.78;5032997;28;20013;-68
2022/05/03 04:54:35;;;;;;;8.87;4.17;;;;;;;-145.18;100.00;60484.78;5033434;28;20024;-68
2022/05/03 04:57:02;;;;;;;8.77;2.93;;;;;;;-145.18;100.00;60484.78;5040244;28;20028;-68
2022/05/03 04:59:28;;;;;;;9.70;3.40;;;;;;;-145.18;100.00;60484.78;5037425;28;20034;-68
2022/05/03 05:01:53;;;;;;;14.93;4.73;;;;;;;-145.18;100.00;60484.78;5034897;28;20013;-68
2022/05/03 05:04:19;;;;;;;20.00;4.63;;;;;;;-145.18;100.00;60484.78;5033422;28;20037;-68
2022/05/03 05:06:44;;;;;;;9.53;3.80;;;;;;;-145.18;100.00;60484.78;5044606;28;20450;-68
2022/05/03 05:09:10;;;;;;;9.37;3.93;;;;;;;-145.18;100.00;60484.78;5031088;28;20500;-68
2022/05/03 05:11:36;;;;;;;7.93;4.37;;;;;;;-145.18;100.00;60484.78;5050534;28;20037;-68
2022/05/03 05:14:01;;;;;;;15.43;4.80;;;;;;;-145.18;100.00;60484.78;5044968;28;20060;-68
2022/05/03 05:16:26;;;;;;;13.97;4.40;;;;;;;-145.18;100.00;60484.78;5036903;28;20425;-68
2022/05/03 05:18:52;;;;;;;9.47;3.97;;;;;;;-145.18;100.00;60484.78;5035706;28;20025;-68
2022/05/03 05:21:17;;;;;;;9.83;4.13;;;;;;;-145.18;100.00;60484.78;5042668;28;20488;-68
2022/05/03 05:23:43;;;;;;;9.23;3.80;;;;;;;-145.18;100.00;60484.78;5039510;28;20037;-68
2022/05/03 05:26:09;;;;;;;12.00;4.60;;;;;;;-145.18;100.00;60484.78;5033709;28;20025;-68
2022/05/03 05:28:34;;;;;;;11.17;4.30;;;;;;;-145.18;100.00;60484.78;5029550;28;20028;-68
2022/05/03 05:30:59;;;;;;;7.63;3.80;;;;;;;-145.18;100.00;60484.78;5037289;28;20040;-68
2022/05/03 05:33:25;;;;;;;8.73;4.23;;;;;;;-145.18;100.00;60484.78;5041829;28;20392;-68
2022/05/03 05:35:51;;;;;;;12.00;4.17;;;;;;;-145.18;100.00;60484.78;5037191;28;20025;-68
2022/05/03 05:38:17;;;;;;;9.83;4.50;;;;;;;-145.18;100.00;60484.78;5037199;28;20025;-68
2022/05/03 05:40:46;;;;;;;12.77;4.27;;;;;;;-145.18;100.00;60484.78;5041865;28;20036;-68
2022/05/03 05:43:11;;;;;;;14.38;4.32;;;;;;;-145.18;100.00;60484.78;5035234;28;20496;-68
2022/05/03 05:45:37;;;;;;;10.57;4.40;;;;;;;-145.18;100.00;60484.78;5032105;28;20033;-68
2022/05/03 05:48:04;;;;;;;10.50;4.50;;;;;;;-145.18;100.00;60484.78;5039414;28;20039;-68
2022/05/03 05:50:29;;;;;;;9.57;3.97;;;;;;;-145.18;100.00;60484.78;5035643;28;20025;-68
2022/05/03 05:55:39;;;;;;;7.80;3.60;;;;;;;-145.18;100.00;60484.78;5042770;28;20090;-70
2022/05/03 05:58:04;;;;;;;7.68;3.70;;;;;;;-145.18;100.00;60484.78;5034808;28;20029;-68
2022/05/03 06:00:30;;;;;;;9.32;3.80;;;;;;;-145.18;100.00;60484.78;5036629;28;20021;-68
2022/05/03 06:02:56;;;;;;;9.43;3.50;;;;;;;-145.18;100.00;60484.78;5032209;28;20474;-68
2022/05/03 06:05:21;;;;;;;6.35;3.30;;;;;;;-145.18;100.00;60484.78;5040804;28;20021;-68
2022/05/03 06:07:47;;;;;;;6.72;3.30;;;;;;;-145.18;100.00;60484.78;5032328;28;20052;-68
2022/05/03 06:10:12;;;;;;;9.77;3.70;;;;;;;-145.18;100.00;60484.78;5038383;28;20055;-68
2022/05/03 06:12:37;;;;;;;8.70;3.30;;;;;;;-145.18;100.00;60484.78;5050735;28;20021;-68
2022/05/03 06:15:03;;;;;;;8.77;3.67;;;;;;;-145.18;100.00;60484.78;5037780;28;20478;-68
2022/05/03 06:17:29;;;;;;;7.40;3.40;;;;;;;-145.18;100.00;60484.78;5035832;28;20025;-68
2022/05/03 06:19:55;;;;;;;7.13;3.35;;;;;;;-145.18;100.00;60484.78;5035835;28;20090;-68
2022/05/03 06:22:20;;;;;;;7.22;3.25;;;;;;;-145.18;100.00;60484.78;5054448;28;20108;-68
2022/05/03 06:24:47;;;;;;;7.47;3.20;;;;;;;-145.18;100.00;60484.78;5054505;28;20082;-68
2022/05/03 06:27:16;;;;;;;10.98;3.10;;;;;;;-145.18;100.00;60484.78;5053123;28;20473;-68
2022/05/03 06:29:42;;;;;;;8.57;3.50;;;;;;;-145.18;100.00;60484.78;5038157;28;20028;-68
2022/05/03 06:32:10;;;;;;;8.30;3.03;;;;;;;-145.18;100.00;60484.78;5040070;28;20038;-67
2022/05/03 06:34:36;;;;;;;19.48;3.63;;;;;;;-145.18;100.00;60484.78;5037211;28;20032;-67
2022/05/03 06:37:01;;;;;;;7.35;3.30;;;;;;;-145.18;100.00;60484.78;5054110;28;20025;-67
2022/05/03 06:39:27;;;;;;;7.82;3.83;;;;;;;-145.18;100.00;60484.78;5054166;28;20025;-68
2022/05/03 06:41:52;;;;;;;9.73;5.40;;;;;;;-145.18;100.00;60484.78;5053243;28;20048;-68
2022/05/03 06:44:17;;;;;;;10.05;6.30;;;;;;;-145.18;100.00;60484.78;5053504;28;20025;-68
2022/05/03 06:46:43;;;;;;;8.77;5.80;;;;;;;-145.18;100.00;60484.78;5041647;28;20033;-68
2022/05/03 06:49:10;;;;;;;10.50;6.47;;;;;;;-145.18;100.00;60484.78;5033883;28;20033;-67
2022/05/03 06:51:37;;;;;;;10.13;5.70;;;;;;;-145.18;100.00;60484.78;5051626;28;20533;-67
2022/05/03 06:54:03;;;;;;;14.55;7.38;;;;;;;-145.18;100.00;60484.78;5054284;28;20029;-68
2022/05/03 06:56:33;;;;;;;10.40;7.43;;;;;;;-145.18;100.00;60484.78;5041557;28;20095;-67
2022/05/03 06:58:58;;;;;;;15.35;8.85;;;;;;;-145.18;100.00;60484.78;5046477;28;20021;-68
2022/05/03 07:01:23;;;;;;;12.10;9.02;;;;;;;-145.18;100.00;60484.78;5052467;28;20449;-68
2022/05/03 07:03:49;;;;;;;13.40;9.73;;;;;;;-145.18;100.00;60484.78;5053998;28;20025;-68
2022/05/03 07:06:20;;;;;;;16.23;9.70;;;;;;;-145.18;100.00;60484.78;5053339;28;20375;-68
2022/05/03 07:08:45;;;;;;;15.57;9.57;;;;;;;-145.18;100.00;60484.78;5053732;28;20025;-68
2022/05/03 07:11:10;;;;;;;13.10;9.38;;;;;;;-145.18;100.00;60484.78;5053416;28;20378;-68
2022/05/03 07:13:36;;;;;;;15.85;9.68;;;;;;;-145.18;100.00;60484.78;5052268;28;20025;-68
2022/05/03 07:16:01;;;;;;;13.48;9.63;;;;;;;-145.18;100.00;60484.78;5047126;28;20104;-68
2022/05/03 07:23:55;;;;;;;13.63;10.55;;;;;;;-145.18;100.00;60484.78;5045096;28;20511;-68
2022/05/03 07:26:21;;;;;;;14.65;11.32;;;;;;;-145.18;100.00;60484.78;5053311;28;20029;-68
2022/05/03 07:28:50;;;;;;;17.40;11.25;;;;;;;-145.18;100.00;60484.78;5042995;28;20598;-68
2022/05/03 07:31:16;;;;;;;17.98;12.65;;;;;;;-145.18;100.00;60484.78;5036238;28;20041;-67
2022/05/03 07:33:42;;;;;;;15.23;11.75;;;;;;;-145.18;100.00;60484.78;5038119;28;20040;-67
2022/05/03 07:36:08;;;;;;;18.23;12.55;;;;;;;-145.18;100.00;60484.78;5048223;28;20032;-67
2022/05/03 07:38:34;;;;;;;14.30;11.55;;;;;;;-145.18;100.00;60484.78;5046558;28;20029;-67
2022/05/03 07:40:59;;;;;;;13.57;11.13;;;;;;;-145.18;100.00;60484.78;5047214;28;20103;-67
2022/05/03 07:43:25;;;;;;;16.95;11.48;;;;;;;-145.18;100.00;60484.78;5048609;28;20152;-68
2022/05/03 07:45:51;;;;;;;14.90;10.95;;;;;;;-145.18;100.00;60484.78;5039320;28;20488;-67
2022/05/03 07:48:16;;;;;;;13.80;11.35;;;;;;;-145.18;100.00;60484.78;5032796;28;20030;-67
2022/05/03 07:50:44;;;;;;;19.63;10.95;;;;;;;-145.18;100.00;60484.78;5043201;28;20035;-67
2022/05/03 07:53:09;;;;;;;16.10;10.38;;;;;;;-145.18;100.00;60484.78;5052229;28;20021;-67
2022/05/03 07:55:34;;;;;;;13.93;10.93;;;;;;;-145.18;100.00;60484.78;5051059;28;20056;-67
2022/05/03 07:58:00;;;;;;;16.95;10.98;;;;;;;-145.18;100.00;60484.78;5052971;28;20032;-67
2022/05/03 08:00:26;;;;;;;15.63;10.90;;;;;;;-145.18;100.00;60484.78;5041995;28;20033;-67
2022/05/03 08:02:52;;;;;;;12.90;10.25;;;;;;;-145.18;100.00;60484.78;5052228;28;20029;-67
2022/05/03 08:05:17;;;;;;;12.90;9.50;;;;;;;-145.18;100.00;60484.78;5052593;28;20355;-67
2022/05/03 08:07:43;;;;;;;17.17;9.75;;;;;;;-145.18;100.00;60484.78;5052271;28;20463;-67
2022/05/03 08:10:09;;;;;;;14.02;9.68;;;;;;;-145.18;100.00;60484.78;5052122;28;20020;-67
2022/05/03 08:12:35;;;;;;;16.63;10.55;;;;;;;-145.18;100.00;60484.78;5048438;28;20032;-67
2022/05/03 08:15:01;;;;;;;13.25;9.80;;;;;;;-145.18;100.00;60484.78;5040386;28;20099;-67
2022/05/03 08:17:28;;;;;;;12.82;9.63;;;;;;;-145.18;100.00;60484.78;5051988;28;20456;-67
2022/05/03 08:19:56;;;;;;;15.27;9.60;;;;;;;-145.18;100.00;60484.78;5050604;28;20029;-67
2022/05/03 08:22:21;;;;;;;13.82;9.98;;;;;;;-145.18;100.00;60484.78;5052166;28;20100;-67
2022/05/03 08:24:47;;;;;;;12.57;9.88;;;;;;;-145.18;100.00;60484.78;5051800;28;20116;-67
2022/05/03 08:27:12;;;;;;;12.68;9.85;;;;;;;-145.18;100.00;60484.78;5052398;28;20024;-67
2022/05/03 08:29:38;;;;;;;13.00;10.40;;;;;;;-145.18;100.00;60484.78;5047100;28;20045;-67
2022/05/03 08:32:04;;;;;;;14.52;10.35;;;;;;;-145.18;100.00;60484.78;5047723;28;20048;-67
2022/05/03 08:34:29;;;;;;;15.65;10.38;;;;;;;-145.18;100.00;60484.78;5051515;28;20025;-67
2022/05/03 08:42:24;;;;;;;16.27;8.75;;;;;;;-145.18;100.00;60484.78;5042517;28;20024;-67
2022/05/03 08:44:50;;;;;;;13.00;8.32;;;;;;;-145.18;100.00;60484.78;5037625;28;20099;-67
2022/05/03 08:47:19;;;;;;;11.93;8.63;;;;;;;-145.18;100.00;60484.78;5035968;28;20502;-67
2022/05/03 08:50:06;;;;;;;14.38;10.18;;;;;;;-145.18;100.00;60484.78;5050075;28;20048;-67
2022/05/03 08:52:39;;;;;;;14.38;10.57;;;;;;;-145.18;100.00;60484.78;5041874;28;20030;-67
2022/05/03 08:55:05;;;;;;;18.17;11.18;;;;;;;-145.18;100.00;60484.78;5038207;28;20025;-67
2022/05/03 08:57:31;;;;;;;17.10;10.52;;;;;;;-145.18;100.00;60484.78;5051727;28;20020;-67
2022/05/03 08:59:58;;;;;;;14.90;9.75;;;;;;;-145.18;100.00;60484.78;5041108;28;20029;-67
2022/05/03 09:02:23;;;;;;;13.80;9.55;;;;;;;-145.18;100.00;60484.78;5050462;28;20021;-67
2022/05/03 09:04:49;;;;;;;16.77;8.90;;;;;;;-145.18;100.00;60484.78;5051050;28;20401;-67
2022/05/03 09:07:22;;;;;;;11.80;7.35;;;;;;;-145.18;100.00;60484.78;5051380;28;20029;-67
2022/05/03 09:09:49;;;;;;;11.35;7.65;;;;;;;-145.18;100.00;60484.78;5051017;28;20033;-67
2022/05/03 09:12:29;;;;;;;12.40;8.38;;;;;;;-145.18;100.00;60484.78;5051469;28;20096;-67
2022/05/03 09:15:00;;;;;;;12.20;8.27;;;;;;;-145.18;100.00;60484.78;5042839;28;20558;-67
2022/05/03 09:17:44;;;;;;;14.15;9.10;;;;;;;-145.18;100.00;60484.78;5051424;28;20025;-67
2022/05/03 09:23:50;;;;;;;16.75;8.80;;;;;;;-145.18;100.00;60484.78;5051090;28;20081;-67
2022/05/03 09:26:18;;;;;;;15.60;9.93;;;;;;;-145.18;100.00;60484.78;5051303;28;20135;-67
2022/05/03 09:28:52;;;;;;;16.42;9.95;;;;;;;-145.18;100.00;60484.78;5043963;28;20025;-67
2022/05/03 09:31:33;;;;;;;15.68;9.75;;;;;;;-145.18;100.00;60484.78;5048202;28;20037;-67
2022/05/03 09:34:01;;;;;;;15.40;10.30;;;;;;;-145.18;100.00;60484.78;5051229;28;20028;-67
2022/05/03 09:36:27;;;;;;;17.90;10.02;;;;;;;-145.18;100.00;60484.78;5050856;28;20036;-67
2022/05/03 09:38:56;;;;;;;17.02;9.80;;;;;;;-145.18;100.00;60484.78;5047545;28;20435;-67
2022/05/03 09:41:22;;;;;;;15.63;10.10;;;;;;;-145.18;100.00;60484.78;5050354;28;20021;-67
2022/05/03 09:44:03;;;;;;;19.48;10.48;;;;;;;-145.18;100.00;60484.78;5042809;28;20026;-67
2022/05/03 09:46:29;;;;;;;15.10;9.30;;;;;;;-145.18;100.00;60484.78;5049218;28;20033;-67
2022/05/03 09:48:55;;;;;;;25.25;9.88;;;;;;;-145.18;100.00;60484.78;5050859;28;20024;-67
2022/05/03 09:51:22;;;;;;;9.98;7.10;;;;;;;-145.18;100.00;60484.78;5050609;28;20108;-67
2022/05/03 09:53:58;;;;;;;10.55;7.55;;;;;;;-145.18;100.00;60484.78;5051229;28;20078;-67
2022/05/03 09:56:27;;;;;;;16.95;7.75;;;;;;;-145.18;100.00;60484.78;5053005;28;20073;-67
2022/05/03 09:59:06;;;;;;;11.00;7.35;;;;;;;-145.18;100.00;60484.78;5045508;28;20056;-67
2022/05/03 10:01:32;;;;;;;10.32;6.53;;;;;;;-145.18;100.00;60484.78;5054930;28;20376;-67
2022/05/03 10:03:57;;;;;;;10.90;6.78;;;;;;;-145.18;100.00;60484.78;5054869;28;20029;-67
2022/05/03 10:06:23;;;;;;;9.75;5.95;;;;;;;-145.18;100.00;60484.78;5054496;28;20037;-67
2022/05/03 10:08:49;;;;;;;11.32;7.30;;;;;;;-145.18;100.00;60484.78;5054450;28;20040;-68
2022/05/03 10:11:16;;;;;;;10.68;7.45;;;;;;;-145.18;100.00;60484.78;5036314;28;20032;-67
2022/05/03 10:13:42;;;;;;;11.38;7.35;;;;;;;-145.18;100.00;60484.78;5040086;28;20067;-67
2022/05/03 10:21:40;;;;;;;10.68;7.30;;;;;;;-145.18;100.00;60484.78;5049535;28;20040;-67
2022/05/03 10:24:12;;;;;;;10.85;7.40;;;;;;;-145.18;100.00;60484.78;5036090;28;20116;-68
2022/05/03 10:26:52;;;;;;;12.30;8.65;;;;;;;-145.18;100.00;60484.78;5042211;28;20067;-68
2022/05/03 10:29:23;;;;;;;11.60;7.97;;;;;;;-145.18;100.00;60484.78;5039861;28;20030;-68
2022/05/03 10:32:06;;;;;;;14.48;10.48;;;;;;;-145.18;100.00;60484.78;5038563;28;20036;-67
2022/05/03 10:34:46;;;;;;;18.10;10.40;;;;;;;-145.18;100.00;60484.78;5034158;28;20043;-67
2022/05/03 10:37:16;;;;;;;19.35;11.43;;;;;;;-145.18;100.00;60484.78;5033526;28;20199;-67
2022/05/03 10:39:55;;;;;;;16.95;11.95;;;;;;;-145.18;100.00;60484.78;5044362;28;20037;-68
2022/05/03 10:42:29;;;;;;;18.85;11.13;;;;;;;-145.18;100.00;60484.78;5044602;28;20075;-67
2022/05/03 10:45:01;;;;;;;15.60;11.68;;;;;;;-145.18;100.00;60484.78;5045048;28;20528;-68
2022/05/03 10:47:47;;;;;;;17.15;11.55;;;;;;;-145.18;100.00;60484.78;5044281;28;20033;-67
2022/05/03 10:50:13;;;;;;;18.20;11.30;;;;;;;-145.18;100.00;60484.78;5050370;28;20481;-67
2022/05/03 10:52:53;;;;;;;21.77;11.35;;;;;;;-145.18;100.00;60484.78;5053706;28;20044;-67
2022/05/03 10:55:19;;;;;;;16.17;11.02;;;;;;;-145.18;100.00;60484.78;5049358;28;20045;-67
2022/05/03 10:58:18;;;;;;;15.85;10.25;;;;;;;-145.18;100.00;60484.78;5046140;28;20583;-68
2022/05/03 11:01:02;;;;;;;15.32;10.60;;;;;;;-145.18;100.00;60484.78;5046722;28;20029;-67
2022/05/03 11:03:28;;;;;;;16.70;10.18;;;;;;;-145.18;100.00;60484.78;5033940;28;20478;-67
2022/05/03 11:06:28;;;;;;;16.15;10.48;;;;;;;-145.18;100.00;60484.78;5044119;28;20028;-67
2022/05/03 11:09:09;;;;;;;15.70;9.35;;;;;;;-145.18;100.00;60484.78;5040794;28;20036;-67
2022/05/03 11:11:37;;;;;;;15.35;9.30;;;;;;;-145.18;100.00;60484.78;5039805;28;20022;-67
2022/05/03 11:14:24;;;;;;;13.52;9.20;;;;;;;-145.18;100.00;60484.78;5035685;28;20091;-68
2022/05/03 11:17:02;;;;;;;13.45;9.48;;;;;;;-145.18;100.00;60484.78;5032996;28;20550;-67
2022/05/03 11:19:30;;;;;;;13.15;8.95;;;;;;;-145.18;100.00;60484.78;5034874;28;20033;-68
2022/05/03 11:21:58;;;;;;;13.05;8.93;;;;;;;-145.18;100.00;60484.78;5053629;28;20055;-67
2022/05/03 11:24:30;;;;;;;14.73;9.50;;;;;;;-145.18;100.00;60484.78;5053307;28;20116;-67
2022/05/03 11:26:58;;;;;;;15.48;8.60;;;;;;;-145.18;100.00;60484.78;5052934;28;20052;-67
2022/05/03 11:29:32;;;;;;;15.50;8.60;;;;;;;-145.18;100.00;60484.78;5048277;28;20047;-68
2022/05/03 11:31:59;;;;;;;12.40;8.15;;;;;;;-145.18;100.00;60484.78;5042426;28;20026;-67
2022/05/03 11:34:26;;;;;;;14.10;9.13;;;;;;;-145.18;100.00;60484.78;5034155;28;20025;-68
2022/05/03 11:36:52;;;;;;;12.90;8.48;;;;;;;-145.18;100.00;60484.78;5053207;28;20394;-68
2022/05/03 11:39:18;;;;;;;13.52;8.00;;;;;;;-145.18;100.00;60484.78;5049706;28;20083;-68
2022/05/03 11:41:45;;;;;;;12.82;8.43;;;;;;;-145.18;100.00;60484.78;5053182;28;20029;-67
2022/05/03 11:44:11;;;;;;;13.13;8.63;;;;;;;-145.18;100.00;60484.78;5042118;28;20115;-67
2022/05/03 11:46:38;;;;;;;11.65;8.23;;;;;;;-145.18;100.00;60484.78;5051680;28;20541;-67
2022/05/03 11:49:08;;;;;;;11.95;7.57;;;;;;;-145.18;100.00;60484.78;5043527;28;20419;-67
2022/05/03 11:57:24;;;;;;;15.15;8.18;;;;;;;-145.18;100.00;60484.78;5052732;28;20078;-67